< < Back
Terminal Aerodrome Forecast


Current Version              Previous Versions:   1  2  3  4  5  6  7  8  9  

Terminal Aerodrome Forecast

850
FTUS42 KTAE 241100
TAFABY
TAF
KABY 241120Z 2412/2512 00000KT P6SM BKN070
     FM241400 19006KT P6SM SCT060
     FM251000 22004KT P6SM BKN015=

Latest METAR

325
SAUS70 KWBC 241700 RRD
MTRABY
METAR KABY 241653Z VRB03KT 10SM FEW070 27/13 A3002 RMK AO2 SLP163
T02670128


USA.gov is the U.S. government's official web portal to all federal, state and local government web resources and services.